イスタンブル の空港の天気 - METARとTAF

アタテュルク国際空港(イスタンブル) ( LTBA / IST ) - トルコ イスタンブル
飛行場実況気象(Metar)
観測時間04/26 13:50 EET (04/26 10:50 UTC)
風向・風速西 3m/s
視程10km以上
天気現象
なし
気温25℃
湿度47%
気圧1013hPa
METARLTBA 261050Z 28005KT 230V310 CAVOK 25/13 Q1013 NOSIG RMK RWY17L VRB03KT RWY05 24005KT RWY23 24006KT
過去の天気等 Google飛行場航空写真 Wunderground天気予報

過去48時間のMETAR

飛行場予報(TAF)
発表時間: 4/26 07:40 EET (4/26 04:40 UTC)
予報対象時間: 26日9時 EET ~ 27日15時 EET
風向・風速不定 1m/s
視程10km以上
なし
26日14時 EET ~ 26日17時 EET に徐々に
風向・風速北北東 6m/s
TAF LTBA 260440Z 2606/2712 VRB02KT CAVOK
BECMG 2611/2614 03012KT